LIN weather

Milano Linate Airport
Milan, Lombardy, Italy

Public forecast

Using degrees Celsius for public forecast. Weather courtesy of forecast.io.

Current aviation weather report (METAR) for Milano Linate Airport

Retrieved 2019/11/19 14:20 UTC (33 minutes ago):

LIML 191420Z 33003KT 6000 -DZ FEW005 BKN010 OVC050 09/09 Q1015 NOSIG

Aviation forecast (TAF) for Milano Linate Airport

Retrieved 2019/11/19 12:00 UTC (3 hours ago):

TAF LIML 191100Z 1912/2012 34006KT 6000 RA BKN025 BKN050